sensor_id;sensor_type;location;lat;lon;timestamp;P1;durP1;ratioP1;P2;durP2;ratioP2
46753;SDS011;32500;50.620;3.400;2022-11-04T00:01:41;72.13;;;51.05;;
46753;SDS011;32500;50.620;3.400;2022-11-04T00:04:08;71.05;;;50.83;;
46753;SDS011;32500;50.620;3.400;2022-11-04T00:06:35;71.75;;;51.22;;
46753;SDS011;32500;50.620;3.400;2022-11-04T00:09:02;71.85;;;51.47;;
46753;SDS011;32500;50.620;3.400;2022-11-04T00:11:29;71.93;;;51.33;;
46753;SDS011;32500;50.620;3.400;2022-11-04T00:14:14;71.40;;;50.80;;
46753;SDS011;32500;50.620;3.400;2022-11-04T00:16:40;71.47;;;51.03;;
46753;SDS011;32500;50.620;3.400;2022-11-04T00:19:25;72.00;;;50.75;;
46753;SDS011;32500;50.620;3.400;2022-11-04T00:21:51;72.25;;;51.60;;
46753;SDS011;32500;50.620;3.400;2022-11-04T00:24:36;72.05;;;50.75;;
46753;SDS011;32500;50.620;3.400;2022-11-04T00:27:21;71.40;;;51.42;;
46753;SDS011;32500;50.620;3.400;2022-11-04T00:30:06;70.93;;;51.35;;
46753;SDS011;32500;50.620;3.400;2022-11-04T00:32:34;72.15;;;51.55;;
46753;SDS011;32500;50.620;3.400;2022-11-04T00:35:18;73.10;;;50.65;;
46753;SDS011;32500;50.620;3.400;2022-11-04T00:37:44;71.38;;;50.83;;
46753;SDS011;32500;50.620;3.400;2022-11-04T00:40:12;72.05;;;51.47;;
46753;SDS011;32500;50.620;3.400;2022-11-04T00:42:39;73.13;;;51.33;;
46753;SDS011;32500;50.620;3.400;2022-11-04T00:45:08;72.65;;;51.38;;
46753;SDS011;32500;50.620;3.400;2022-11-04T00:47:33;71.45;;;51.08;;
46753;SDS011;32500;50.620;3.400;2022-11-04T00:49:59;71.60;;;51.45;;
46753;SDS011;32500;50.620;3.400;2022-11-04T00:52:25;72.20;;;51.13;;
46753;SDS011;32500;50.620;3.400;2022-11-04T00:54:50;71.90;;;51.03;;
46753;SDS011;32500;50.620;3.400;2022-11-04T00:57:16;71.22;;;51.05;;
46753;SDS011;32500;50.620;3.400;2022-11-04T00:59:42;72.72;;;51.92;;
46753;SDS011;32500;50.620;3.400;2022-11-04T01:02:09;72.57;;;51.28;;
46753;SDS011;32500;50.620;3.400;2022-11-04T01:04:37;72.95;;;51.22;;
46753;SDS011;32500;50.620;3.400;2022-11-04T01:07:03;72.30;;;51.63;;
46753;SDS011;32500;50.620;3.400;2022-11-04T01:09:28;73.15;;;51.08;;
46753;SDS011;32500;50.620;3.400;2022-11-04T01:11:54;72.20;;;51.70;;
46753;SDS011;32500;50.620;3.400;2022-11-04T01:14:20;72.22;;;51.50;;
46753;SDS011;32500;50.620;3.400;2022-11-04T01:16:47;74.03;;;50.97;;
46753;SDS011;32500;50.620;3.400;2022-11-04T01:19:13;72.32;;;51.00;;
46753;SDS011;32500;50.620;3.400;2022-11-04T01:21:39;71.35;;;51.20;;
46753;SDS011;32500;50.620;3.400;2022-11-04T01:24:04;73.57;;;51.28;;
46753;SDS011;32500;50.620;3.400;2022-11-04T01:26:30;73.43;;;51.28;;
46753;SDS011;32500;50.620;3.400;2022-11-04T01:28:57;71.82;;;51.03;;
46753;SDS011;32500;50.620;3.400;2022-11-04T01:31:25;72.20;;;50.95;;
46753;SDS011;32500;50.620;3.400;2022-11-04T01:33:53;72.10;;;51.00;;
46753;SDS011;32500;50.620;3.400;2022-11-04T01:36:20;72.30;;;51.08;;
46753;SDS011;32500;50.620;3.400;2022-11-04T01:38:47;72.97;;;50.85;;
46753;SDS011;32500;50.620;3.400;2022-11-04T01:41:18;72.38;;;51.08;;
46753;SDS011;32500;50.620;3.400;2022-11-04T01:43:58;72.45;;;51.38;;
46753;SDS011;32500;50.620;3.400;2022-11-04T01:46:36;72.53;;;51.13;;
46753;SDS011;32500;50.620;3.400;2022-11-04T01:52:07;71.65;;;51.47;;
46753;SDS011;32500;50.620;3.400;2022-11-04T01:54:37;71.60;;;50.97;;
46753;SDS011;32500;50.620;3.400;2022-11-04T01:57:05;71.53;;;51.03;;
46753;SDS011;32500;50.620;3.400;2022-11-04T01:59:34;74.30;;;51.15;;
46753;SDS011;32500;50.620;3.400;2022-11-04T02:02:03;71.47;;;51.03;;
46753;SDS011;32500;50.620;3.400;2022-11-04T02:04:29;72.03;;;51.25;;
46753;SDS011;32500;50.620;3.400;2022-11-04T02:07:00;72.22;;;51.42;;
46753;SDS011;32500;50.620;3.400;2022-11-04T02:09:29;73.50;;;51.17;;
46753;SDS011;32500;50.620;3.400;2022-11-04T02:11:57;72.88;;;51.08;;
46753;SDS011;32500;50.620;3.400;2022-11-04T02:14:42;71.60;;;50.95;;
46753;SDS011;32500;50.620;3.400;2022-11-04T02:17:20;73.78;;;51.67;;
46753;SDS011;32500;50.620;3.400;2022-11-04T02:25:50;71.30;;;50.42;;
46753;SDS011;32500;50.620;3.400;2022-11-04T02:34:11;72.43;;;51.35;;
46753;SDS011;32500;50.620;3.400;2022-11-04T02:37:03;72.53;;;51.08;;
46753;SDS011;32500;50.620;3.400;2022-11-04T02:39:53;71.78;;;51.20;;
46753;SDS011;32500;50.620;3.400;2022-11-04T02:42:24;73.78;;;51.47;;
46753;SDS011;32500;50.620;3.400;2022-11-04T02:45:13;72.03;;;50.63;;
46753;SDS011;32500;50.620;3.400;2022-11-04T02:47:44;71.82;;;51.40;;
46753;SDS011;32500;50.620;3.400;2022-11-04T02:50:16;73.50;;;51.23;;
46753;SDS011;32500;50.620;3.400;2022-11-04T02:52:46;71.30;;;50.92;;
46753;SDS011;32500;50.620;3.400;2022-11-04T02:55:26;71.63;;;51.28;;
46753;SDS011;32500;50.620;3.400;2022-11-04T02:57:57;72.63;;;51.20;;
46753;SDS011;32500;50.620;3.400;2022-11-04T03:00:24;71.65;;;51.28;;
46753;SDS011;32500;50.620;3.400;2022-11-04T03:02:50;73.95;;;51.25;;
46753;SDS011;32500;50.620;3.400;2022-11-04T03:05:27;73.40;;;51.75;;
46753;SDS011;32500;50.620;3.400;2022-11-04T03:07:59;73.57;;;51.53;;
46753;SDS011;32500;50.620;3.400;2022-11-04T03:10:37;73.25;;;51.03;;
46753;SDS011;32500;50.620;3.400;2022-11-04T03:13:13;72.43;;;50.75;;
46753;SDS011;32500;50.620;3.400;2022-11-04T03:16:00;71.75;;;50.85;;
46753;SDS011;32500;50.620;3.400;2022-11-04T03:21:03;71.78;;;51.08;;
46753;SDS011;32500;50.620;3.400;2022-11-04T03:23:33;73.13;;;51.83;;
46753;SDS011;32500;50.620;3.400;2022-11-04T03:26:07;73.82;;;51.20;;
46753;SDS011;32500;50.620;3.400;2022-11-04T03:31:32;71.63;;;50.63;;
46753;SDS011;32500;50.620;3.400;2022-11-04T03:34:23;72.00;;;50.85;;
46753;SDS011;32500;50.620;3.400;2022-11-04T03:36:49;71.20;;;50.63;;
46753;SDS011;32500;50.620;3.400;2022-11-04T03:39:15;72.15;;;51.35;;
46753;SDS011;32500;50.620;3.400;2022-11-04T03:41:42;74.00;;;51.50;;
46753;SDS011;32500;50.620;3.400;2022-11-04T03:44:13;72.25;;;51.35;;
46753;SDS011;32500;50.620;3.400;2022-11-04T03:46:38;72.35;;;51.60;;
46753;SDS011;32500;50.620;3.400;2022-11-04T03:49:04;73.03;;;51.40;;
46753;SDS011;32500;50.620;3.400;2022-11-04T03:51:31;72.82;;;51.03;;
46753;SDS011;32500;50.620;3.400;2022-11-04T03:53:57;73.57;;;51.22;;
46753;SDS011;32500;50.620;3.400;2022-11-04T04:02:11;72.85;;;51.03;;
46753;SDS011;32500;50.620;3.400;2022-11-04T04:04:44;72.35;;;50.95;;
46753;SDS011;32500;50.620;3.400;2022-11-04T04:07:27;71.43;;;51.05;;
46753;SDS011;32500;50.620;3.400;2022-11-04T04:10:17;71.72;;;50.60;;
46753;SDS011;32500;50.620;3.400;2022-11-04T04:15:50;72.05;;;50.95;;
46753;SDS011;32500;50.620;3.400;2022-11-04T04:18:37;71.00;;;50.72;;
46753;SDS011;32500;50.620;3.400;2022-11-04T04:21:07;72.13;;;51.17;;
46753;SDS011;32500;50.620;3.400;2022-11-04T04:23:35;72.28;;;51.10;;
46753;SDS011;32500;50.620;3.400;2022-11-04T04:26:21;72.60;;;51.03;;
46753;SDS011;32500;50.620;3.400;2022-11-04T04:29:07;72.95;;;50.78;;
46753;SDS011;32500;50.620;3.400;2022-11-04T04:31:35;71.88;;;51.08;;
46753;SDS011;32500;50.620;3.400;2022-11-04T04:34:15;72.05;;;50.85;;
46753;SDS011;32500;50.620;3.400;2022-11-04T04:36:44;71.65;;;50.67;;
46753;SDS011;32500;50.620;3.400;2022-11-04T04:39:27;71.82;;;51.10;;
46753;SDS011;32500;50.620;3.400;2022-11-04T04:42:37;70.07;;;50.25;;
46753;SDS011;32500;50.620;3.400;2022-11-04T04:45:24;71.75;;;51.10;;
46753;SDS011;32500;50.620;3.400;2022-11-04T04:47:54;72.45;;;50.95;;
46753;SDS011;32500;50.620;3.400;2022-11-04T04:50:20;72.72;;;50.88;;
46753;SDS011;32500;50.620;3.400;2022-11-04T04:52:47;71.97;;;50.80;;
46753;SDS011;32500;50.620;3.400;2022-11-04T04:55:15;72.68;;;50.92;;
46753;SDS011;32500;50.620;3.400;2022-11-04T04:57:41;71.45;;;51.35;;
46753;SDS011;32500;50.620;3.400;2022-11-04T05:00:08;72.30;;;51.42;;
46753;SDS011;32500;50.620;3.400;2022-11-04T05:02:36;71.15;;;50.90;;
46753;SDS011;32500;50.620;3.400;2022-11-04T05:05:02;72.07;;;51.63;;
46753;SDS011;32500;50.620;3.400;2022-11-04T05:07:28;71.95;;;51.13;;
46753;SDS011;32500;50.620;3.400;2022-11-04T05:09:53;72.38;;;50.80;;
46753;SDS011;32500;50.620;3.400;2022-11-04T05:12:19;72.40;;;50.92;;
46753;SDS011;32500;50.620;3.400;2022-11-04T05:14:45;71.75;;;51.20;;
46753;SDS011;32500;50.620;3.400;2022-11-04T05:17:10;72.80;;;51.20;;
46753;SDS011;32500;50.620;3.400;2022-11-04T05:19:36;70.78;;;50.65;;
46753;SDS011;32500;50.620;3.400;2022-11-04T05:22:02;71.93;;;51.10;;
46753;SDS011;32500;50.620;3.400;2022-11-04T05:24:28;70.95;;;50.42;;
46753;SDS011;32500;50.620;3.400;2022-11-04T05:26:54;72.63;;;50.90;;
46753;SDS011;32500;50.620;3.400;2022-11-04T05:29:20;71.95;;;51.45;;
46753;SDS011;32500;50.620;3.400;2022-11-04T05:31:46;72.05;;;50.90;;
46753;SDS011;32500;50.620;3.400;2022-11-04T05:34:12;71.95;;;50.67;;
46753;SDS011;32500;50.620;3.400;2022-11-04T05:36:38;72.78;;;50.88;;
46753;SDS011;32500;50.620;3.400;2022-11-04T05:39:04;72.25;;;51.13;;
46753;SDS011;32500;50.620;3.400;2022-11-04T05:41:30;73.05;;;51.05;;
46753;SDS011;32500;50.620;3.400;2022-11-04T05:43:57;72.85;;;50.85;;
46753;SDS011;32500;50.620;3.400;2022-11-04T05:46:25;72.78;;;51.05;;
46753;SDS011;32500;50.620;3.400;2022-11-04T05:48:51;70.95;;;50.97;;
46753;SDS011;32500;50.620;3.400;2022-11-04T05:51:18;71.72;;;50.53;;
46753;SDS011;32500;50.620;3.400;2022-11-04T05:53:49;72.38;;;51.03;;
46753;SDS011;32500;50.620;3.400;2022-11-04T05:56:15;70.68;;;50.53;;
46753;SDS011;32500;50.620;3.400;2022-11-04T05:58:41;72.18;;;50.67;;
46753;SDS011;32500;50.620;3.400;2022-11-04T06:01:40;74.53;;;50.92;;
46753;SDS011;32500;50.620;3.400;2022-11-04T06:04:00;72.38;;;51.10;;
46753;SDS011;32500;50.620;3.400;2022-11-04T06:06:27;72.80;;;50.75;;
46753;SDS011;32500;50.620;3.400;2022-11-04T06:08:55;71.72;;;50.65;;
46753;SDS011;32500;50.620;3.400;2022-11-04T06:11:21;71.88;;;51.28;;
46753;SDS011;32500;50.620;3.400;2022-11-04T06:13:48;75.60;;;50.75;;
46753;SDS011;32500;50.620;3.400;2022-11-04T06:16:14;72.50;;;51.20;;
46753;SDS011;32500;50.620;3.400;2022-11-04T06:18:40;72.90;;;51.50;;
46753;SDS011;32500;50.620;3.400;2022-11-04T06:21:25;72.32;;;50.92;;
46753;SDS011;32500;50.620;3.400;2022-11-04T06:23:53;73.18;;;51.08;;
46753;SDS011;32500;50.620;3.400;2022-11-04T06:26:21;71.50;;;50.65;;
46753;SDS011;32500;50.620;3.400;2022-11-04T06:28:48;73.45;;;50.78;;
46753;SDS011;32500;50.620;3.400;2022-11-04T06:31:14;71.95;;;51.25;;
46753;SDS011;32500;50.620;3.400;2022-11-04T06:33:40;72.10;;;50.95;;
46753;SDS011;32500;50.620;3.400;2022-11-04T06:36:06;71.63;;;51.25;;
46753;SDS011;32500;50.620;3.400;2022-11-04T06:38:35;72.18;;;51.17;;
46753;SDS011;32500;50.620;3.400;2022-11-04T06:41:09;72.88;;;51.28;;
46753;SDS011;32500;50.620;3.400;2022-11-04T06:43:37;72.63;;;50.53;;
46753;SDS011;32500;50.620;3.400;2022-11-04T06:46:03;71.95;;;51.45;;
46753;SDS011;32500;50.620;3.400;2022-11-04T06:48:29;72.18;;;50.75;;
46753;SDS011;32500;50.620;3.400;2022-11-04T06:50:56;74.18;;;52.08;;
46753;SDS011;32500;50.620;3.400;2022-11-04T06:53:23;72.80;;;50.97;;
46753;SDS011;32500;50.620;3.400;2022-11-04T06:55:49;74.50;;;51.13;;
46753;SDS011;32500;50.620;3.400;2022-11-04T06:58:16;72.50;;;50.75;;
46753;SDS011;32500;50.620;3.400;2022-11-04T07:00:42;73.57;;;51.33;;
46753;SDS011;32500;50.620;3.400;2022-11-04T07:03:08;73.80;;;50.97;;
46753;SDS011;32500;50.620;3.400;2022-11-04T07:05:34;74.18;;;50.90;;
46753;SDS011;32500;50.620;3.400;2022-11-04T07:08:00;72.65;;;51.45;;
46753;SDS011;32500;50.620;3.400;2022-11-04T07:10:25;73.80;;;51.28;;
46753;SDS011;32500;50.620;3.400;2022-11-04T07:12:51;72.45;;;50.88;;
46753;SDS011;32500;50.620;3.400;2022-11-04T07:15:19;73.72;;;50.70;;
46753;SDS011;32500;50.620;3.400;2022-11-04T07:17:44;74.18;;;50.90;;
46753;SDS011;32500;50.620;3.400;2022-11-04T07:20:10;71.38;;;50.95;;
46753;SDS011;32500;50.620;3.400;2022-11-04T07:22:37;71.68;;;50.88;;
46753;SDS011;32500;50.620;3.400;2022-11-04T07:25:06;73.05;;;51.33;;
46753;SDS011;32500;50.620;3.400;2022-11-04T07:27:32;73.28;;;51.22;;
46753;SDS011;32500;50.620;3.400;2022-11-04T07:29:57;72.43;;;51.38;;
46753;SDS011;32500;50.620;3.400;2022-11-04T07:32:23;72.10;;;51.28;;
46753;SDS011;32500;50.620;3.400;2022-11-04T07:34:49;71.82;;;50.88;;
46753;SDS011;32500;50.620;3.400;2022-11-04T07:37:14;72.70;;;50.85;;
46753;SDS011;32500;50.620;3.400;2022-11-04T07:39:40;76.53;;;51.50;;
46753;SDS011;32500;50.620;3.400;2022-11-04T07:42:06;76.45;;;52.03;;
46753;SDS011;32500;50.620;3.400;2022-11-04T07:44:32;75.80;;;51.80;;
46753;SDS011;32500;50.620;3.400;2022-11-04T07:46:58;79.50;;;52.00;;
46753;SDS011;32500;50.620;3.400;2022-11-04T07:49:23;76.20;;;52.03;;
46753;SDS011;32500;50.620;3.400;2022-11-04T07:51:50;75.75;;;52.15;;
46753;SDS011;32500;50.620;3.400;2022-11-04T07:54:16;77.35;;;52.45;;
46753;SDS011;32500;50.620;3.400;2022-11-04T07:56:42;78.07;;;51.63;;
46753;SDS011;32500;50.620;3.400;2022-11-04T07:59:07;75.40;;;51.58;;
46753;SDS011;32500;50.620;3.400;2022-11-04T08:01:33;72.78;;;51.88;;
46753;SDS011;32500;50.620;3.400;2022-11-04T08:03:59;75.38;;;52.08;;
46753;SDS011;32500;50.620;3.400;2022-11-04T08:06:25;79.35;;;52.40;;
46753;SDS011;32500;50.620;3.400;2022-11-04T08:08:51;76.47;;;51.47;;
46753;SDS011;32500;50.620;3.400;2022-11-04T08:11:18;75.93;;;52.33;;
46753;SDS011;32500;50.620;3.400;2022-11-04T08:13:46;76.82;;;52.05;;
46753;SDS011;32500;50.620;3.400;2022-11-04T08:16:12;76.80;;;51.85;;
46753;SDS011;32500;50.620;3.400;2022-11-04T08:18:41;85.22;;;51.92;;
46753;SDS011;32500;50.620;3.400;2022-11-04T08:21:07;77.70;;;52.45;;
46753;SDS011;32500;50.620;3.400;2022-11-04T08:23:33;77.35;;;51.88;;
46753;SDS011;32500;50.620;3.400;2022-11-04T08:25:59;73.18;;;51.75;;
46753;SDS011;32500;50.620;3.400;2022-11-04T08:28:25;80.55;;;52.03;;
46753;SDS011;32500;50.620;3.400;2022-11-04T08:30:57;79.05;;;51.88;;
46753;SDS011;32500;50.620;3.400;2022-11-04T08:33:26;73.30;;;51.70;;
46753;SDS011;32500;50.620;3.400;2022-11-04T08:35:53;76.75;;;51.70;;
46753;SDS011;32500;50.620;3.400;2022-11-04T08:38:22;75.95;;;52.10;;
46753;SDS011;32500;50.620;3.400;2022-11-04T08:40:48;75.25;;;51.75;;
46753;SDS011;32500;50.620;3.400;2022-11-04T08:43:14;74.75;;;51.75;;
46753;SDS011;32500;50.620;3.400;2022-11-04T08:45:43;81.32;;;52.75;;
46753;SDS011;32500;50.620;3.400;2022-11-04T08:48:10;82.47;;;52.40;;
46753;SDS011;32500;50.620;3.400;2022-11-04T08:50:36;101.55;;;56.50;;
46753;SDS011;32500;50.620;3.400;2022-11-04T08:53:02;100.43;;;56.38;;
46753;SDS011;32500;50.620;3.400;2022-11-04T08:55:29;104.22;;;56.67;;
46753;SDS011;32500;50.620;3.400;2022-11-04T08:57:55;96.70;;;55.55;;
46753;SDS011;32500;50.620;3.400;2022-11-04T09:00:22;100.68;;;55.78;;
46753;SDS011;32500;50.620;3.400;2022-11-04T09:02:48;98.97;;;56.72;;
46753;SDS011;32500;50.620;3.400;2022-11-04T09:05:13;103.05;;;55.80;;
46753;SDS011;32500;50.620;3.400;2022-11-04T09:07:40;94.57;;;56.00;;
46753;SDS011;32500;50.620;3.400;2022-11-04T09:10:06;96.57;;;56.97;;
46753;SDS011;32500;50.620;3.400;2022-11-04T09:12:33;95.45;;;57.45;;
46753;SDS011;32500;50.620;3.400;2022-11-04T09:14:59;100.53;;;57.97;;
46753;SDS011;32500;50.620;3.400;2022-11-04T09:17:24;92.32;;;56.60;;
46753;SDS011;32500;50.620;3.400;2022-11-04T09:19:50;89.65;;;55.92;;
46753;SDS011;32500;50.620;3.400;2022-11-04T09:22:16;97.45;;;56.22;;
46753;SDS011;32500;50.620;3.400;2022-11-04T09:24:42;99.60;;;57.33;;
46753;SDS011;32500;50.620;3.400;2022-11-04T09:27:08;93.00;;;55.00;;
46753;SDS011;32500;50.620;3.400;2022-11-04T09:29:34;98.57;;;55.13;;
46753;SDS011;32500;50.620;3.400;2022-11-04T09:32:00;89.38;;;55.40;;
46753;SDS011;32500;50.620;3.400;2022-11-04T09:34:27;94.90;;;55.75;;
46753;SDS011;32500;50.620;3.400;2022-11-04T09:36:56;92.97;;;55.03;;
46753;SDS011;32500;50.620;3.400;2022-11-04T09:39:23;89.88;;;55.30;;
46753;SDS011;32500;50.620;3.400;2022-11-04T09:47:29;90.15;;;55.38;;
46753;SDS011;32500;50.620;3.400;2022-11-04T09:49:56;88.78;;;55.25;;
46753;SDS011;32500;50.620;3.400;2022-11-04T09:52:24;89.03;;;55.05;;
46753;SDS011;32500;50.620;3.400;2022-11-04T09:55:33;90.57;;;55.22;;
46753;SDS011;32500;50.620;3.400;2022-11-04T09:57:55;92.40;;;54.83;;
46753;SDS011;32500;50.620;3.400;2022-11-04T10:00:24;85.97;;;54.47;;
46753;SDS011;32500;50.620;3.400;2022-11-04T10:03:08;89.60;;;54.88;;
46753;SDS011;32500;50.620;3.400;2022-11-04T10:11:27;84.43;;;54.42;;
46753;SDS011;32500;50.620;3.400;2022-11-04T10:22:35;86.35;;;54.80;;
46753;SDS011;32500;50.620;3.400;2022-11-04T10:25:21;88.68;;;54.88;;
46753;SDS011;32500;50.620;3.400;2022-11-04T10:27:49;83.50;;;54.55;;
46753;SDS011;32500;50.620;3.400;2022-11-04T10:30:20;82.80;;;53.75;;
46753;SDS011;32500;50.620;3.400;2022-11-04T10:43:53;81.63;;;54.28;;
46753;SDS011;32500;50.620;3.400;2022-11-04T10:46:39;84.93;;;54.67;;
46753;SDS011;32500;50.620;3.400;2022-11-04T10:51:58;83.18;;;53.75;;
46753;SDS011;32500;50.620;3.400;2022-11-04T10:54:24;86.13;;;53.95;;
46753;SDS011;32500;50.620;3.400;2022-11-04T10:56:52;81.65;;;54.38;;
46753;SDS011;32500;50.620;3.400;2022-11-04T11:01:59;85.07;;;53.65;;
46753;SDS011;32500;50.620;3.400;2022-11-04T11:06:54;85.22;;;54.33;;
46753;SDS011;32500;50.620;3.400;2022-11-04T11:22:34;79.13;;;53.55;;
46753;SDS011;32500;50.620;3.400;2022-11-04T11:27:54;82.38;;;54.08;;
46753;SDS011;32500;50.620;3.400;2022-11-04T11:30:31;78.83;;;53.83;;
46753;SDS011;32500;50.620;3.400;2022-11-04T11:33:22;81.90;;;54.08;;
46753;SDS011;32500;50.620;3.400;2022-11-04T11:36:05;83.10;;;54.40;;
46753;SDS011;32500;50.620;3.400;2022-11-04T11:41:30;81.55;;;53.65;;
46753;SDS011;32500;50.620;3.400;2022-11-04T11:44:19;80.95;;;53.75;;
46753;SDS011;32500;50.620;3.400;2022-11-04T11:46:54;82.28;;;53.83;;
46753;SDS011;32500;50.620;3.400;2022-11-04T11:49:43;85.28;;;54.17;;
46753;SDS011;32500;50.620;3.400;2022-11-04T11:52:30;77.22;;;53.08;;
46753;SDS011;32500;50.620;3.400;2022-11-04T11:55:14;80.90;;;53.17;;
46753;SDS011;32500;50.620;3.400;2022-11-04T11:57:59;81.47;;;53.80;;
46753;SDS011;32500;50.620;3.400;2022-11-04T12:01:05;82.30;;;53.97;;
46753;SDS011;32500;50.620;3.400;2022-11-04T12:03:33;83.22;;;53.53;;
46753;SDS011;32500;50.620;3.400;2022-11-04T12:14:04;76.95;;;53.30;;
46753;SDS011;32500;50.620;3.400;2022-11-04T12:21:58;79.78;;;53.15;;
46753;SDS011;32500;50.620;3.400;2022-11-04T12:29:45;79.53;;;53.80;;
46753;SDS011;32500;50.620;3.400;2022-11-04T12:35:01;80.93;;;53.42;;
46753;SDS011;32500;50.620;3.400;2022-11-04T12:43:46;87.25;;;53.72;;
46753;SDS011;32500;50.620;3.400;2022-11-04T12:54:30;86.00;;;53.65;;
46753;SDS011;32500;50.620;3.400;2022-11-04T13:02:35;81.15;;;52.75;;
46753;SDS011;32500;50.620;3.400;2022-11-04T13:07:51;79.88;;;53.13;;
46753;SDS011;32500;50.620;3.400;2022-11-04T13:10:47;79.18;;;53.67;;
46753;SDS011;32500;50.620;3.400;2022-11-04T13:13:46;79.53;;;52.45;;
46753;SDS011;32500;50.620;3.400;2022-11-04T13:16:22;79.72;;;53.08;;
46753;SDS011;32500;50.620;3.400;2022-11-04T13:18:48;77.35;;;53.28;;
46753;SDS011;32500;50.620;3.400;2022-11-04T13:21:17;78.97;;;53.42;;
46753;SDS011;32500;50.620;3.400;2022-11-04T13:23:57;79.65;;;53.00;;
46753;SDS011;32500;50.620;3.400;2022-11-04T13:26:44;79.25;;;53.28;;
46753;SDS011;32500;50.620;3.400;2022-11-04T13:31:43;79.45;;;52.90;;
46753;SDS011;32500;50.620;3.400;2022-11-04T13:36:46;77.78;;;53.17;;
46753;SDS011;32500;50.620;3.400;2022-11-04T13:39:56;79.40;;;53.30;;
46753;SDS011;32500;50.620;3.400;2022-11-04T13:44:55;79.28;;;53.40;;
46753;SDS011;32500;50.620;3.400;2022-11-04T13:47:34;80.15;;;53.65;;
46753;SDS011;32500;50.620;3.400;2022-11-04T13:50:12;76.63;;;52.97;;
46753;SDS011;32500;50.620;3.400;2022-11-04T13:53:09;75.72;;;53.10;;
46753;SDS011;32500;50.620;3.400;2022-11-04T13:55:35;79.65;;;53.17;;
46753;SDS011;32500;50.620;3.400;2022-11-04T13:58:16;78.47;;;52.83;;
46753;SDS011;32500;50.620;3.400;2022-11-04T14:01:08;75.25;;;52.55;;
46753;SDS011;32500;50.620;3.400;2022-11-04T14:06:04;76.22;;;52.42;;
46753;SDS011;32500;50.620;3.400;2022-11-04T14:08:32;77.80;;;53.10;;
46753;SDS011;32500;50.620;3.400;2022-11-04T14:11:00;75.95;;;52.58;;
46753;SDS011;32500;50.620;3.400;2022-11-04T14:18:56;76.07;;;52.65;;
46753;SDS011;32500;50.620;3.400;2022-11-04T14:21:22;76.05;;;52.92;;
46753;SDS011;32500;50.620;3.400;2022-11-04T14:23:50;75.05;;;52.25;;
46753;SDS011;32500;50.620;3.400;2022-11-04T14:29:24;76.60;;;52.08;;
46753;SDS011;32500;50.620;3.400;2022-11-04T14:31:51;75.60;;;52.63;;
46753;SDS011;32500;50.620;3.400;2022-11-04T14:34:37;78.60;;;52.13;;
46753;SDS011;32500;50.620;3.400;2022-11-04T14:37:26;74.05;;;51.53;;
46753;SDS011;32500;50.620;3.400;2022-11-04T14:39:56;74.78;;;51.92;;
46753;SDS011;32500;50.620;3.400;2022-11-04T14:45:37;74.60;;;51.50;;
46753;SDS011;32500;50.620;3.400;2022-11-04T14:48:11;75.45;;;51.72;;
46753;SDS011;32500;50.620;3.400;2022-11-04T14:50:42;76.03;;;52.05;;
46753;SDS011;32500;50.620;3.400;2022-11-04T14:53:13;73.93;;;52.00;;
46753;SDS011;32500;50.620;3.400;2022-11-04T14:56:13;73.13;;;51.58;;
46753;SDS011;32500;50.620;3.400;2022-11-04T14:58:54;73.35;;;51.40;;
46753;SDS011;32500;50.620;3.400;2022-11-04T15:01:26;73.00;;;51.78;;
46753;SDS011;32500;50.620;3.400;2022-11-04T15:03:55;74.50;;;51.90;;
46753;SDS011;32500;50.620;3.400;2022-11-04T15:06:28;73.50;;;51.75;;
46753;SDS011;32500;50.620;3.400;2022-11-04T15:08:54;75.05;;;51.95;;
46753;SDS011;32500;50.620;3.400;2022-11-04T15:11:22;74.20;;;51.85;;
46753;SDS011;32500;50.620;3.400;2022-11-04T15:14:22;73.43;;;51.60;;
46753;SDS011;32500;50.620;3.400;2022-11-04T15:16:53;73.78;;;51.80;;
46753;SDS011;32500;50.620;3.400;2022-11-04T15:19:31;73.25;;;51.90;;
46753;SDS011;32500;50.620;3.400;2022-11-04T15:22:01;73.47;;;51.78;;
46753;SDS011;32500;50.620;3.400;2022-11-04T15:24:29;75.65;;;52.00;;
46753;SDS011;32500;50.620;3.400;2022-11-04T15:27:01;73.45;;;51.42;;
46753;SDS011;32500;50.620;3.400;2022-11-04T15:29:29;73.80;;;51.80;;
46753;SDS011;32500;50.620;3.400;2022-11-04T15:31:57;73.03;;;52.40;;
46753;SDS011;32500;50.620;3.400;2022-11-04T15:34:25;72.38;;;51.35;;
46753;SDS011;32500;50.620;3.400;2022-11-04T15:36:53;74.97;;;51.72;;
46753;SDS011;32500;50.620;3.400;2022-11-04T15:39:25;72.78;;;51.53;;
46753;SDS011;32500;50.620;3.400;2022-11-04T15:41:59;76.57;;;51.58;;
46753;SDS011;32500;50.620;3.400;2022-11-04T15:44:50;73.80;;;51.25;;
46753;SDS011;32500;50.620;3.400;2022-11-04T15:49:47;74.32;;;51.53;;
46753;SDS011;32500;50.620;3.400;2022-11-04T15:52:22;72.95;;;51.35;;
46753;SDS011;32500;50.620;3.400;2022-11-04T15:54:50;72.85;;;51.55;;
46753;SDS011;32500;50.620;3.400;2022-11-04T15:57:21;72.30;;;51.60;;
46753;SDS011;32500;50.620;3.400;2022-11-04T16:02:28;72.88;;;51.35;;
46753;SDS011;32500;50.620;3.400;2022-11-04T16:07:34;74.20;;;51.50;;
46753;SDS011;32500;50.620;3.400;2022-11-04T16:10:02;72.60;;;51.20;;
46753;SDS011;32500;50.620;3.400;2022-11-04T16:12:46;72.43;;;51.63;;
46753;SDS011;32500;50.620;3.400;2022-11-04T16:18:03;73.65;;;51.60;;
46753;SDS011;32500;50.620;3.400;2022-11-04T16:20:30;74.43;;;51.55;;
46753;SDS011;32500;50.620;3.400;2022-11-04T16:22:58;72.40;;;51.50;;
46753;SDS011;32500;50.620;3.400;2022-11-04T16:25:26;72.30;;;51.58;;
46753;SDS011;32500;50.620;3.400;2022-11-04T16:27:56;73.13;;;51.20;;
46753;SDS011;32500;50.620;3.400;2022-11-04T16:30:23;77.78;;;51.60;;
46753;SDS011;32500;50.620;3.400;2022-11-04T16:32:50;71.32;;;50.83;;
46753;SDS011;32500;50.620;3.400;2022-11-04T16:35:21;74.05;;;51.72;;
46753;SDS011;32500;50.620;3.400;2022-11-04T16:37:49;76.80;;;51.78;;
46753;SDS011;32500;50.620;3.400;2022-11-04T16:40:15;73.70;;;51.03;;
46753;SDS011;32500;50.620;3.400;2022-11-04T16:42:42;71.45;;;51.08;;
46753;SDS011;32500;50.620;3.400;2022-11-04T16:45:31;73.55;;;52.13;;
46753;SDS011;32500;50.620;3.400;2022-11-04T16:48:00;73.88;;;51.65;;
46753;SDS011;32500;50.620;3.400;2022-11-04T16:50:26;76.05;;;51.38;;
46753;SDS011;32500;50.620;3.400;2022-11-04T16:52:52;72.28;;;51.05;;
46753;SDS011;32500;50.620;3.400;2022-11-04T16:55:18;71.32;;;50.65;;
46753;SDS011;32500;50.620;3.400;2022-11-04T16:57:46;72.22;;;50.92;;
46753;SDS011;32500;50.620;3.400;2022-11-04T17:02:44;71.95;;;51.20;;
46753;SDS011;32500;50.620;3.400;2022-11-04T17:05:10;73.72;;;52.33;;
46753;SDS011;32500;50.620;3.400;2022-11-04T17:07:36;74.53;;;51.65;;
46753;SDS011;32500;50.620;3.400;2022-11-04T17:10:03;75.53;;;51.92;;
46753;SDS011;32500;50.620;3.400;2022-11-04T17:12:36;75.72;;;53.10;;
46753;SDS011;32500;50.620;3.400;2022-11-04T17:15:02;74.95;;;52.42;;
46753;SDS011;32500;50.620;3.400;2022-11-04T17:17:27;75.68;;;52.78;;
46753;SDS011;32500;50.620;3.400;2022-11-04T17:19:53;75.10;;;52.45;;
46753;SDS011;32500;50.620;3.400;2022-11-04T17:22:19;72.75;;;51.75;;
46753;SDS011;32500;50.620;3.400;2022-11-04T17:24:44;74.57;;;52.28;;
46753;SDS011;32500;50.620;3.400;2022-11-04T17:27:10;76.15;;;52.05;;
46753;SDS011;32500;50.620;3.400;2022-11-04T17:29:36;74.00;;;51.67;;